createdAt,value
2019-02-11T00:00:02.360Z,5.5
2019-02-11T00:05:17.601Z,5.2
2019-02-11T00:10:05.632Z,5.1
2019-02-11T00:15:08.225Z,5
2019-02-11T00:20:28.579Z,5
2019-02-11T00:25:20.321Z,4.9
2019-02-11T00:30:04.889Z,4.9
2019-02-11T00:35:04.916Z,4.8
2019-02-11T00:40:17.651Z,4.7
2019-02-11T00:45:02.418Z,4.7
2019-02-11T00:50:27.775Z,4.4
2019-02-11T00:55:10.412Z,4.3
2019-02-11T01:00:04.936Z,4.2
2019-02-11T01:05:20.224Z,4
2019-02-11T01:10:10.310Z,3.8
2019-02-11T01:15:22.983Z,3.7
2019-02-11T01:25:08.118Z,3.3
2019-02-11T01:40:07.634Z,2.7
2019-02-11T01:45:07.732Z,2.5
2019-02-11T01:50:23.045Z,2.3
2019-02-11T01:55:22.952Z,2.3
2019-02-11T02:00:05.482Z,2.2
2019-02-11T02:05:08.147Z,2
2019-02-11T02:10:07.667Z,1.9
2019-02-11T02:15:02.605Z,1.9
2019-02-11T02:20:27.940Z,1.6
2019-02-11T02:25:05.474Z,1.6
2019-02-11T02:30:10.059Z,1.5
2019-02-11T02:35:10.003Z,1.4
2019-02-11T02:45:07.535Z,1.2
2019-02-11T02:55:07.513Z,1.2
2019-02-11T03:00:05.016Z,1.3
2019-02-11T03:05:02.444Z,1.3
2019-02-11T03:10:28.276Z,1.4
2019-02-11T03:20:02.514Z,1.5
2019-02-11T03:25:20.299Z,1.8
2019-02-11T03:35:08.313Z,2.2
2019-02-11T03:40:32.788Z,2.5
2019-02-11T03:45:23.054Z,2.7
2019-02-11T03:50:13.222Z,2.8
2019-02-11T03:55:03.008Z,2.8
2019-02-11T04:00:30.971Z,3.2
2019-02-11T04:05:10.543Z,3.3
2019-02-11T04:10:15.719Z,3.4
2019-02-11T04:15:02.713Z,3.4
2019-02-11T04:20:10.533Z,3.5
2019-02-11T04:25:07.957Z,3.5
2019-02-11T04:30:28.412Z,3.6
2019-02-11T04:35:07.425Z,3.5
2019-02-11T04:40:25.701Z,3.6
2019-02-11T04:45:10.235Z,3.5
2019-02-11T04:50:36.196Z,3.6
2019-02-11T04:55:18.386Z,3.7
2019-02-11T05:00:12.507Z,3.8
2019-02-11T05:05:09.933Z,3.8
2019-02-11T05:10:15.182Z,3.8
2019-02-11T05:15:17.657Z,3.8
2019-02-11T05:20:38.171Z,3.8
2019-02-11T05:25:05.685Z,3.8
2019-02-11T05:30:10.287Z,3.9
2019-02-11T05:35:07.818Z,3.9
2019-02-11T05:40:02.370Z,3.9
2019-02-11T05:45:03.291Z,4
2019-02-11T05:50:37.725Z,4
2019-02-11T05:55:20.468Z,4
2019-02-11T06:00:10.100Z,4
2019-02-11T06:05:35.354Z,4.1
2019-02-11T06:10:35.769Z,4.1
2019-02-11T06:20:28.227Z,4.2
2019-02-11T06:25:08.346Z,4.2
2019-02-11T06:30:20.197Z,4.2
2019-02-11T06:35:20.234Z,4.2
2019-02-11T06:40:12.867Z,4.1
2019-02-11T06:45:02.739Z,4.1
2019-02-11T06:50:07.874Z,4.2
2019-02-11T06:55:02.812Z,4.1
2019-02-11T07:00:05.389Z,4.1
2019-02-11T07:05:02.847Z,4.1
2019-02-11T07:10:25.191Z,4.1
2019-02-11T07:15:22.326Z,4.1
2019-02-11T07:20:05.139Z,4.2
2019-02-11T07:25:02.610Z,4.1
2019-02-11T07:30:05.179Z,4.2
2019-02-11T07:35:10.220Z,4.1
2019-02-11T07:40:10.255Z,4.2
2019-02-11T07:45:20.391Z,4.2
2019-02-11T07:50:15.107Z,4.3
2019-02-11T07:55:02.412Z,4.3
2019-02-11T08:05:12.595Z,4.3
2019-02-11T08:10:15.887Z,4.4
2019-02-11T08:20:03.229Z,4.4
2019-02-11T08:25:08.269Z,4.6
2019-02-11T08:30:02.390Z,4.6
2019-02-11T08:35:04.939Z,4.7
2019-02-11T08:40:04.963Z,4.7
2019-02-11T08:45:25.245Z,4.8
2019-02-11T08:50:21.162Z,4.9
2019-02-11T08:55:17.549Z,4.9
2019-02-11T09:00:25.349Z,5
2019-02-11T09:05:18.032Z,5
2019-02-11T09:10:05.031Z,5.1
2019-02-11T09:15:02.551Z,5.1
2019-02-11T09:20:02.421Z,5.2
2019-02-11T09:25:02.449Z,5.3
2019-02-11T09:30:02.505Z,5.4
2019-02-11T09:35:02.549Z,5.5
2019-02-11T09:45:23.290Z,5.5
2019-02-11T09:50:20.048Z,5.6
2019-02-11T09:55:10.225Z,5.7
2019-02-11T10:00:15.885Z,5.6
2019-02-11T10:05:03.259Z,5.6
2019-02-11T10:10:30.546Z,5.5
2019-02-11T10:15:10.345Z,5.5
2019-02-11T10:20:17.604Z,5.6
2019-02-11T10:25:02.494Z,5.6
2019-02-11T10:30:17.708Z,5.6
2019-02-11T10:35:10.165Z,5.6
2019-02-11T10:40:02.781Z,5.6
2019-02-11T10:45:05.355Z,5.7
2019-02-11T10:50:27.718Z,5.7
2019-02-11T11:00:10.321Z,6
2019-02-11T11:05:33.098Z,6.1
2019-02-11T11:10:05.408Z,6.1
2019-02-11T11:15:10.549Z,6
2019-02-11T11:20:20.693Z,6.1
2019-02-11T11:25:35.917Z,6.2
2019-02-11T11:30:18.093Z,6.2
2019-02-11T11:35:33.326Z,6.2
2019-02-11T11:40:07.910Z,6.2
2019-02-11T11:45:10.396Z,6.2
2019-02-11T11:50:10.032Z,6.2
2019-02-11T11:55:22.658Z,6.2
2019-02-11T12:00:02.761Z,6.2
2019-02-11T12:05:10.558Z,6.2
2019-02-11T12:10:05.797Z,6.2
2019-02-11T12:15:02.421Z,6.2
2019-02-11T12:20:15.339Z,6.2
2019-02-11T12:25:05.354Z,6.3
2019-02-11T12:30:15.660Z,6.2
2019-02-11T12:40:05.219Z,5.9
2019-02-11T12:45:03.085Z,5.9
2019-02-11T12:50:05.069Z,5.3
2019-02-11T12:55:07.869Z,5.5
2019-02-11T13:00:09.980Z,5.6
2019-02-11T13:05:10.474Z,5.5
2019-02-11T13:10:38.405Z,5.4
2019-02-11T13:15:53.783Z,5.4
2019-02-11T13:20:09.163Z,5.6
2019-02-11T13:25:07.317Z,5.6
2019-02-11T13:30:02.511Z,5.8
2019-02-11T13:40:10.719Z,5.9
2019-02-11T13:45:05.798Z,6.1
2019-02-11T13:50:02.909Z,6
2019-02-11T13:55:31.919Z,6
2019-02-11T14:00:03.362Z,6
2019-02-11T14:05:07.450Z,6.2
2019-02-11T14:10:03.079Z,6.2
2019-02-11T14:20:27.688Z,6
2019-02-11T14:25:05.387Z,6
2019-02-11T14:30:25.344Z,6.1
2019-02-11T14:35:07.465Z,5.9
2019-02-11T14:40:05.630Z,5.9
2019-02-11T14:50:25.572Z,5.8
2019-02-11T14:55:10.225Z,5.8
2019-02-11T15:00:10.842Z,5.8
2019-02-11T15:05:10.864Z,6
2019-02-11T15:10:04.962Z,5.9
2019-02-11T15:15:02.645Z,5.8
2019-02-11T15:20:10.350Z,6.1
2019-02-11T15:25:07.855Z,6.2
2019-02-11T15:30:23.134Z,6.2
2019-02-11T15:35:05.429Z,6.2
2019-02-11T15:40:28.212Z,5.6
2019-02-11T15:45:28.500Z,6
2019-02-11T15:50:02.520Z,6.1
2019-02-11T15:55:07.558Z,6.2
2019-02-11T16:00:07.763Z,6.1
2019-02-11T16:05:07.832Z,6
2019-02-11T16:10:20.087Z,6
2019-02-11T16:15:20.087Z,5.9
2019-02-11T16:20:18.413Z,5.9
2019-02-11T16:25:13.315Z,5.8
2019-02-11T16:40:02.769Z,5.7
2019-02-11T16:45:02.809Z,5.6
2019-02-11T16:50:25.588Z,5.4
2019-02-11T16:55:05.204Z,5.3
2019-02-11T17:00:13.362Z,5.2
2019-02-11T17:05:23.528Z,5.1
2019-02-11T17:10:20.765Z,5
2019-02-11T17:15:03.134Z,5
2019-02-11T17:20:10.853Z,4.9
2019-02-11T17:25:09.964Z,4.9
2019-02-11T17:30:20.725Z,4.8
2019-02-11T17:35:05.567Z,4.8
2019-02-11T17:40:08.229Z,4.8
2019-02-11T17:45:15.814Z,4.7
2019-02-11T17:50:23.200Z,4.6
2019-02-11T17:55:07.913Z,4.5
2019-02-11T18:00:02.947Z,4.6
2019-02-11T18:15:12.443Z,4.4
2019-02-11T18:20:02.487Z,4.4
2019-02-11T18:25:02.526Z,4.4
2019-02-11T18:35:05.077Z,4.3
2019-02-11T18:40:05.161Z,4.2
2019-02-11T18:45:15.402Z,4.2
2019-02-11T18:50:02.420Z,4.2
2019-02-11T18:55:22.636Z,4.1
2019-02-11T19:10:08.150Z,4.1
2019-02-11T19:15:25.830Z,4
2019-02-11T19:25:23.184Z,3.9
2019-02-11T19:35:10.842Z,3.9
2019-02-11T19:40:02.545Z,3.9
2019-02-11T19:45:02.355Z,3.9
2019-02-11T19:50:04.902Z,3.8
2019-02-11T19:55:04.979Z,3.8
2019-02-11T20:00:05.718Z,3.7
2019-02-11T20:05:10.675Z,3.7
2019-02-11T20:10:23.423Z,3.7
2019-02-11T20:15:03.229Z,3.7
2019-02-11T20:20:07.440Z,3.7
2019-02-11T20:25:04.877Z,3.6
2019-02-11T20:30:02.938Z,3.6
2019-02-11T20:35:15.590Z,3.5
2019-02-11T20:40:05.646Z,3.5
2019-02-11T20:45:28.353Z,3.4
2019-02-11T20:50:12.494Z,3.3
2019-02-11T20:55:09.898Z,3.3
2019-02-11T21:00:02.977Z,3.2
2019-02-11T21:05:10.641Z,3.1
2019-02-11T21:10:05.677Z,3.1
2019-02-11T21:15:03.106Z,3.1
2019-02-11T21:20:23.450Z,3
2019-02-11T21:25:36.065Z,2.9
2019-02-11T21:30:08.113Z,2.9
2019-02-11T21:35:08.217Z,2.9
2019-02-11T21:40:05.287Z,2.8
2019-02-11T21:45:07.852Z,2.8
2019-02-11T21:55:15.436Z,2.7
2019-02-11T22:00:04.964Z,2.7
2019-02-11T22:05:02.405Z,2.7
2019-02-11T22:10:05.463Z,2.6
2019-02-11T22:15:30.773Z,2.6
2019-02-11T22:20:12.961Z,2.5
2019-02-11T22:25:10.505Z,2.6
2019-02-11T22:30:12.685Z,2.6
2019-02-11T22:35:05.045Z,2.6
2019-02-11T22:40:07.559Z,2.6
2019-02-11T22:45:02.628Z,2.6
2019-02-11T22:50:17.909Z,2.7
2019-02-11T22:55:07.696Z,2.6
2019-02-11T23:00:20.450Z,2.7
2019-02-11T23:05:12.834Z,2.6
2019-02-11T23:10:33.669Z,2.7
2019-02-11T23:15:10.294Z,2.7
2019-02-11T23:20:15.056Z,2.7
2019-02-11T23:25:25.177Z,2.7
2019-02-11T23:30:30.991Z,2.8
2019-02-11T23:35:03.020Z,2.7
2019-02-11T23:40:07.613Z,2.7
2019-02-11T23:45:10.134Z,2.7
2019-02-11T23:50:30.969Z,2.7
2019-02-11T23:55:05.517Z,2.8
